Time;durP1;ratioP1;P1;durP2;ratioP2;P2;SDS_P1;SDS_P2;PMS_P1;PMS_P2;Temp;Humidity;BMP_temperature;BMP_pressure;BME280_temperature;BME280_humidity;BME280_pressure;Samples;Min_cycle;Max_cycle;Signal;HPM_P1;HPM_P2
2023/08/01 00:03:33;;;;;;;15.43;5.70;;;;;;;16.72;100.00;98534.94;12229278;19;20307;-83
2023/08/01 00:07:35;;;;;;;13.52;5.18;;;;;;;16.68;100.00;98525.59;12224990;19;20022;-83
2023/08/01 00:11:39;;;;;;;12.60;5.47;;;;;;;16.67;100.00;98528.72;12204316;19;20030;-84
2023/08/01 00:15:41;;;;;;;14.03;5.83;;;;;;;16.66;100.00;98500.09;12222769;19;20010;-84
2023/08/01 00:19:54;;;;;;;14.68;6.15;;;;;;;16.65;100.00;98495.63;12223761;19;20014;-83
2023/08/01 00:23:56;;;;;;;10.38;5.50;;;;;;;16.65;100.00;98490.06;12203347;19;20019;-84
2023/08/01 00:27:58;;;;;;;11.00;5.05;;;;;;;16.64;100.00;98475.34;12225886;19;20011;-82
2023/08/01 00:32:00;;;;;;;14.82;5.82;;;;;;;16.66;100.00;98472.28;12228993;19;20033;-83
2023/08/01 00:36:03;;;;;;;14.50;6.32;;;;;;;16.69;100.00;98471.63;12206508;19;20027;-82
2023/08/01 00:40:05;;;;;;;12.45;6.20;;;;;;;16.67;100.00;98451.66;12225356;19;20478;-82
2023/08/01 00:44:07;;;;;;;14.38;6.78;;;;;;;16.68;100.00;98453.28;12232667;19;20024;-82
2023/08/01 00:48:09;;;;;;;14.00;7.05;;;;;;;16.69;100.00;98451.34;12201330;19;20010;-82
2023/08/01 00:52:11;;;;;;;17.33;6.63;;;;;;;16.69;100.00;98432.69;12219139;19;20118;-82
2023/08/01 00:56:13;;;;;;;14.33;5.90;;;;;;;16.68;100.00;98433.81;12226270;19;20350;-82
2023/08/01 01:00:15;;;;;;;18.95;7.30;;;;;;;16.68;100.00;98428.25;12201894;19;20044;-83
2023/08/01 01:04:17;;;;;;;14.87;6.67;;;;;;;16.72;100.00;98432.03;12217941;19;20457;-82
2023/08/01 01:08:20;;;;;;;19.52;7.40;;;;;;;16.71;100.00;98437.91;12198241;19;20010;-82
2023/08/01 01:12:22;;;;;;;15.30;6.97;;;;;;;16.73;100.00;98443.97;12220539;19;20111;-83
2023/08/01 01:16:24;;;;;;;18.92;7.68;;;;;;;16.74;100.00;98443.63;12223491;19;20043;-83
2023/08/01 01:20:25;;;;;;;26.92;7.78;;;;;;;16.73;100.00;98414.19;12200597;19;20029;-82
2023/08/01 01:24:28;;;;;;;19.92;8.07;;;;;;;16.73;100.00;98403.06;12225465;19;20044;-83
2023/08/01 01:28:30;;;;;;;17.00;7.43;;;;;;;16.70;100.00;98394.56;12229354;19;20007;-82
2023/08/01 01:32:33;;;;;;;16.58;7.18;;;;;;;16.70;100.00;98400.94;12208121;19;20018;-82
2023/08/01 01:36:35;;;;;;;17.67;7.32;;;;;;;16.71;100.00;98418.44;12228667;19;20011;-83
2023/08/01 01:40:36;;;;;;;20.17;7.72;;;;;;;16.74;100.00;98395.53;12221217;19;20015;-81
2023/08/01 01:44:38;;;;;;;14.43;6.75;;;;;;;16.76;100.00;98394.09;12202546;19;20007;-82
2023/08/01 01:48:42;;;;;;;22.80;7.17;;;;;;;16.76;100.00;98382.97;12221121;19;20007;-82
2023/08/01 01:52:45;;;;;;;21.45;7.93;;;;;;;16.75;100.00;98375.75;12227443;19;20010;-83
2023/08/01 01:56:47;;;;;;;24.58;7.60;;;;;;;16.74;100.00;98357.41;12208343;19;20015;-79
2023/08/01 02:00:49;;;;;;;23.33;8.88;;;;;;;16.65;100.00;98331.56;12215685;19;20006;-81
2023/08/01 02:04:51;;;;;;;20.92;8.55;;;;;;;16.67;100.00;98334.84;12213486;19;20017;-82
2023/08/01 02:08:54;;;;;;;19.33;7.68;;;;;;;16.65;100.00;98312.09;12191589;19;20014;-84
2023/08/01 02:12:57;;;;;;;23.23;8.40;;;;;;;16.62;100.00;98294.09;12211302;19;20018;-83
2023/08/01 02:16:58;;;;;;;21.73;7.97;;;;;;;16.62;100.00;98280.19;12213655;19;20018;-82
2023/08/01 02:21:00;;;;;;;19.85;7.90;;;;;;;16.61;100.00;98298.03;12180089;19;20018;-85
2023/08/01 02:25:02;;;;;;;17.35;8.43;;;;;;;16.66;100.00;98305.41;12211007;19;20007;-82
2023/08/01 02:29:04;;;;;;;19.08;7.75;;;;;;;16.63;100.00;98303.28;12206949;19;20028;-80
2023/08/01 02:33:06;;;;;;;18.88;7.25;;;;;;;16.61;100.00;98286.09;12188808;19;20397;-82
2023/08/01 02:37:08;;;;;;;13.23;6.47;;;;;;;16.66;100.00;98310.97;12210330;19;20017;-85
2023/08/01 02:41:10;;;;;;;13.45;6.05;;;;;;;16.69;100.00;98303.94;12210747;19;20046;-82
2023/08/01 02:45:11;;;;;;;14.35;5.90;;;;;;;16.70;100.00;98286.91;12185343;19;20010;-82
2023/08/01 02:49:13;;;;;;;14.65;6.47;;;;;;;16.71;100.00;98260.72;12202403;19;20014;-81
2023/08/01 02:53:15;;;;;;;15.02;6.55;;;;;;;16.70;100.00;98258.28;12191378;19;20082;-82
2023/08/01 02:57:17;;;;;;;17.80;6.47;;;;;;;16.72;100.00;98248.47;12210007;19;20014;-85
2023/08/01 03:01:18;;;;;;;16.07;7.27;;;;;;;16.74;100.00;98253.69;12207513;19;20484;-82
2023/08/01 03:05:20;;;;;;;17.42;7.20;;;;;;;16.74;100.00;98245.34;12184853;19;20022;-83
2023/08/01 03:09:22;;;;;;;12.50;5.05;;;;;;;16.76;100.00;98257.81;12206326;19;20014;-83
2023/08/01 03:13:24;;;;;;;15.00;6.40;;;;;;;16.76;100.00;98251.44;12204069;19;20010;-83
2023/08/01 03:17:27;;;;;;;18.40;5.68;;;;;;;16.77;100.00;98258.63;12185059;19;20006;-83
2023/08/01 03:21:28;;;;;;;11.10;5.60;;;;;;;16.80;100.00;98256.00;12205070;19;19999;-83
2023/08/01 03:25:30;;;;;;;14.18;5.90;;;;;;;16.81;100.00;98271.56;12206365;19;20023;-84
2023/08/01 03:29:32;;;;;;;18.83;6.10;;;;;;;16.84;100.00;98268.13;12193195;19;20027;-82
2023/08/01 03:33:35;;;;;;;16.80;6.63;;;;;;;16.85;100.00;98283.66;12216111;19;20010;-82
2023/08/01 03:37:36;;;;;;;13.48;5.95;;;;;;;16.84;100.00;98279.25;12216064;19;20370;-81
2023/08/01 03:41:39;;;;;;;16.50;6.35;;;;;;;16.84;100.00;98284.00;12194921;19;20481;-82
2023/08/01 03:45:41;;;;;;;18.70;6.40;;;;;;;16.83;100.00;98272.03;12216285;19;20007;-81
2023/08/01 03:49:43;;;;;;;17.27;6.83;;;;;;;16.84;100.00;98282.03;12215219;19;20624;-81
2023/08/01 03:53:45;;;;;;;20.25;6.70;;;;;;;16.85;100.00;98252.25;12196195;19;20837;-80
2023/08/01 03:57:53;;;;;;;11.57;6.13;;;;;;;16.83;100.00;98254.53;12219429;19;20027;-82
2023/08/01 04:01:55;;;;;;;17.33;6.43;;;;;;;16.79;100.00;98267.47;12220026;19;20101;-79
2023/08/01 04:05:57;;;;;;;12.63;5.78;;;;;;;16.75;100.00;98231.13;12197953;19;20010;-83
2023/08/01 04:09:58;;;;;;;17.45;6.22;;;;;;;16.76;100.00;98226.41;12215325;19;20014;-83
2023/08/01 04:14:00;;;;;;;19.42;6.70;;;;;;;16.74;100.00;98210.00;12217922;19;20027;-84
2023/08/01 04:18:02;;;;;;;17.70;7.07;;;;;;;16.72;100.00;98219.84;12198403;19;20042;-84
2023/08/01 04:22:05;;;;;;;16.10;6.72;;;;;;;16.74;100.00;98225.88;12220217;19;20015;-82
2023/08/01 04:26:06;;;;;;;18.17;6.78;;;;;;;16.74;100.00;98223.09;12215317;19;20019;-84
2023/08/01 04:30:09;;;;;;;14.17;6.63;;;;;;;16.76;100.00;98223.63;12189397;19;20010;-83
2023/08/01 04:34:10;;;;;;;14.80;6.82;;;;;;;16.73;100.00;98219.50;12210674;19;20010;-83
2023/08/01 04:38:12;;;;;;;18.05;6.25;;;;;;;16.73;100.00;98232.59;12213494;19;20027;-84
2023/08/01 04:42:14;;;;;;;15.43;6.13;;;;;;;16.75;100.00;98238.66;12195972;19;20429;-83
2023/08/01 04:46:16;;;;;;;16.77;6.28;;;;;;;16.73;100.00;98240.94;12221661;19;20018;-83
2023/08/01 04:50:18;;;;;;;17.77;7.03;;;;;;;16.72;100.00;98240.13;12191013;19;20006;-83
2023/08/01 04:54:20;;;;;;;17.57;6.90;;;;;;;16.73;100.00;98243.72;12211645;19;20066;-83
2023/08/01 04:58:21;;;;;;;17.77;7.65;;;;;;;16.71;100.00;98257.94;12215691;19;20007;-82
2023/08/01 05:02:23;;;;;;;23.73;8.73;;;;;;;16.69;100.00;98251.91;12192645;19;20090;-83
2023/08/01 05:06:25;;;;;;;25.45;9.23;;;;;;;16.68;100.00;98246.66;12213436;19;20010;-82
2023/08/01 05:10:27;;;;;;;25.83;9.10;;;;;;;16.68;100.00;98177.94;12209847;19;20117;-84
2023/08/01 05:14:28;;;;;;;22.25;8.25;;;;;;;16.63;100.00;98192.03;12189712;19;20022;-82
2023/08/01 05:18:30;;;;;;;13.73;6.65;;;;;;;16.52;100.00;98174.88;12211210;19;20359;-82
2023/08/01 05:22:32;;;;;;;18.20;7.03;;;;;;;16.43;100.00;98146.25;12210042;19;20516;-81
2023/08/01 05:26:34;;;;;;;11.13;6.03;;;;;;;16.32;100.00;98175.53;12197030;19;20023;-80
2023/08/01 05:30:35;;;;;;;16.13;6.70;;;;;;;16.30;100.00;98187.00;12211550;19;20020;-83
2023/08/01 05:34:37;;;;;;;15.85;6.53;;;;;;;16.26;100.00;98213.78;12213486;19;20014;-82
2023/08/01 05:38:39;;;;;;;13.40;5.73;;;;;;;16.27;100.00;98218.22;12191810;19;20786;-82
2023/08/01 05:42:41;;;;;;;15.07;7.32;;;;;;;16.30;100.00;98222.28;12211912;19;20418;-84
2023/08/01 05:46:43;;;;;;;14.18;6.35;;;;;;;16.21;100.00;98216.75;12217010;19;20016;-83
2023/08/01 05:50:45;;;;;;;16.30;6.60;;;;;;;16.18;100.00;98217.38;12184674;19;20010;-84
2023/08/01 05:54:47;;;;;;;17.10;7.13;;;;;;;16.17;100.00;98218.50;12211037;19;20018;-81
2023/08/01 05:58:50;;;;;;;18.50;8.02;;;;;;;16.11;100.00;98211.47;12222724;19;20421;-80
2023/08/01 06:02:52;;;;;;;19.55;7.80;;;;;;;16.07;100.00;98221.63;12195885;19;20386;-83
2023/08/01 06:06:54;;;;;;;17.73;7.43;;;;;;;16.07;100.00;98193.84;12214902;19;20007;-82
2023/08/01 06:10:56;;;;;;;12.77;6.80;;;;;;;16.09;100.00;98191.53;12217725;19;20024;-81
2023/08/01 06:14:58;;;;;;;16.00;6.53;;;;;;;16.15;100.00;98195.78;12190455;19;20090;-82
2023/08/01 06:19:00;;;;;;;13.68;6.82;;;;;;;16.21;100.00;98196.44;12214245;19;20081;-82
2023/08/01 06:23:02;;;;;;;14.70;7.18;;;;;;;16.33;100.00;98211.34;12219100;19;20023;-83
2023/08/01 06:27:05;;;;;;;19.63;7.40;;;;;;;16.43;100.00;98207.41;12200271;19;20007;-83
2023/08/01 06:31:07;;;;;;;16.20;6.40;;;;;;;16.50;100.00;98218.84;12209105;19;20056;-84
2023/08/01 06:35:08;;;;;;;13.32;7.20;;;;;;;16.57;100.00;98224.75;12217342;19;20031;-84
2023/08/01 06:39:11;;;;;;;14.57;6.35;;;;;;;16.60;100.00;98212.97;12196532;19;20011;-84
2023/08/01 06:43:12;;;;;;;13.63;5.32;;;;;;;16.65;100.00;98223.09;12219329;19;20064;-84
2023/08/01 06:47:14;;;;;;;16.70;6.57;;;;;;;16.67;100.00;98220.00;12223645;19;20018;-83
2023/08/01 06:51:16;;;;;;;15.02;6.47;;;;;;;16.72;100.00;98225.41;12218228;19;20030;-86
2023/08/01 06:55:17;;;;;;;16.00;6.35;;;;;;;16.80;100.00;98225.38;12206560;19;20021;-85
2023/08/01 06:59:19;;;;;;;17.10;6.97;;;;;;;16.82;100.00;98228.66;12186208;19;20019;-87
2023/08/01 07:03:21;;;;;;;15.73;6.85;;;;;;;16.81;100.00;98240.97;12221325;19;20023;-87
2023/08/01 07:07:26;;;;;;;17.20;6.97;;;;;;;16.88;100.00;98250.75;12221069;19;20017;-87
2023/08/01 07:11:27;;;;;;;12.77;6.40;;;;;;;17.00;100.00;98240.59;12201809;19;20355;-87
2023/08/01 07:15:33;;;;;;;12.80;6.50;;;;;;;17.17;100.00;98239.75;12220733;19;20053;-86
2023/08/01 07:19:34;;;;;;;14.75;7.13;;;;;;;17.27;100.00;98230.19;12223459;19;20334;-87
2023/08/01 07:23:36;;;;;;;14.82;6.05;;;;;;;17.27;100.00;98264.41;12199788;19;20045;-84
2023/08/01 07:27:38;;;;;;;13.25;6.32;;;;;;;17.08;100.00;98306.53;12219230;19;20464;-83
2023/08/01 07:31:40;;;;;;;6.35;3.58;;;;;;;16.86;100.00;98298.38;12216486;19;20078;-83
2023/08/01 07:35:42;;;;;;;7.25;2.53;;;;;;;16.66;100.00;98305.41;12191727;19;20010;-81
2023/08/01 07:39:44;;;;;;;9.73;2.67;;;;;;;16.67;100.00;98314.56;12215506;19;20006;-82
2023/08/01 07:43:46;;;;;;;5.45;2.00;;;;;;;16.64;100.00;98311.28;12215838;19;20027;-81
2023/08/01 07:47:47;;;;;;;3.05;1.77;;;;;;;16.68;100.00;98317.00;12192326;19;20017;-81
2023/08/01 07:51:49;;;;;;;3.40;1.70;;;;;;;16.78;100.00;98313.94;12211367;19;20359;-81
2023/08/01 07:55:52;;;;;;;3.70;1.85;;;;;;;16.87;100.00;98315.91;12215090;19;20062;-82
2023/08/01 07:59:53;;;;;;;7.03;1.80;;;;;;;16.99;100.00;98321.63;12193252;19;20011;-81
2023/08/01 08:03:55;;;;;;;2.55;1.23;;;;;;;17.05;100.00;98323.09;12214822;19;20090;-82
2023/08/01 08:07:57;;;;;;;3.63;1.70;;;;;;;17.06;100.00;98321.94;12215342;19;20343;-80
2023/08/01 08:11:59;;;;;;;9.50;3.10;;;;;;;17.40;100.00;98323.84;12184125;19;20397;-81
2023/08/01 08:16:01;;;;;;;8.05;3.83;;;;;;;17.96;100.00;98324.66;12208163;19;20007;-83
2023/08/01 08:20:03;;;;;;;8.98;4.03;;;;;;;18.33;100.00;98324.97;12207927;19;20112;-84
2023/08/01 08:24:05;;;;;;;7.95;3.88;;;;;;;18.45;100.00;98324.25;12176588;19;20014;-80
2023/08/01 08:28:08;;;;;;;6.82;3.30;;;;;;;18.72;100.00;98328.47;12196737;19;20007;-83
2023/08/01 08:32:09;;;;;;;6.30;2.65;;;;;;;18.81;100.00;98326.47;12215276;19;20003;-84
2023/08/01 08:36:11;;;;;;;8.38;2.47;;;;;;;18.99;100.00;98332.72;12187417;19;20073;-84
2023/08/01 08:40:14;;;;;;;5.32;2.35;;;;;;;19.24;100.00;98325.25;12217235;19;20019;-85
2023/08/01 08:44:17;;;;;;;4.18;2.00;;;;;;;19.46;100.00;98323.25;12195159;19;20031;-84
2023/08/01 08:48:19;;;;;;;8.20;2.25;;;;;;;19.61;100.00;98324.56;12218330;19;20009;-85
2023/08/01 08:52:21;;;;;;;2.38;1.35;;;;;;;19.78;100.00;98328.00;12212386;19;20490;-84
2023/08/01 08:56:23;;;;;;;4.23;2.27;;;;;;;19.89;100.00;98328.34;12197558;19;20497;-84
2023/08/01 09:00:27;;;;;;;1.77;0.98;;;;;;;19.80;100.00;98330.44;12217789;19;20027;-84
2023/08/01 09:04:30;;;;;;;2.38;1.00;;;;;;;19.86;100.00;98329.06;12220119;19;20030;-84
2023/08/01 09:08:36;;;;;;;2.95;0.98;;;;;;;20.00;100.00;98332.34;12195926;19;20469;-85
2023/08/01 09:12:38;;;;;;;1.13;0.75;;;;;;;20.06;100.00;98332.91;12214087;19;20054;-85
2023/08/01 09:16:41;;;;;;;3.10;0.87;;;;;;;19.88;100.00;98335.13;12216291;19;20006;-85
2023/08/01 09:20:46;;;;;;;4.20;1.00;;;;;;;19.48;100.00;98340.47;12195314;19;20072;-87
2023/08/01 09:29:27;;;;;;;3.17;0.85;;;;;;;20.18;100.00;98340.50;12213964;19;20013;-88
2023/08/01 09:43:56;;;;;;;;;;;;;;;;;;;;;
2023/08/01 09:48:26;;;;;;;2.15;0.95;;;;;;;20.56;100.00;98358.94;12181983;19;20033;-85
2023/08/01 09:52:29;;;;;;;2.20;0.90;;;;;;;21.10;100.00;98362.19;12212035;19;20026;-83
2023/08/01 09:56:32;;;;;;;2.30;0.98;;;;;;;21.39;100.00;98358.28;12215636;19;20010;-81
2023/08/01 10:00:33;;;;;;;4.10;1.20;;;;;;;21.21;100.00;98368.13;12222908;19;20018;-80
2023/08/01 10:04:36;;;;;;;5.40;1.20;;;;;;;21.17;100.00;98369.97;12236295;19;20007;-81
2023/08/01 10:08:40;;;;;;;1.85;1.02;;;;;;;21.35;100.00;98376.91;12194817;19;20006;-81
2023/08/01 10:12:45;;;;;;;2.17;1.23;;;;;;;21.35;100.00;98374.13;12217133;19;20010;-79
2023/08/01 10:16:47;;;;;;;5.03;1.17;;;;;;;21.38;100.00;98378.22;12217328;19;20023;-83
2023/08/01 10:20:50;;;;;;;4.35;1.10;;;;;;;21.57;100.00;98377.56;12191353;19;20018;-83
2023/08/01 10:24:53;;;;;;;3.95;1.60;;;;;;;21.39;100.00;98380.69;12216304;19;20003;-83
2023/08/01 10:28:57;;;;;;;2.75;1.40;;;;;;;21.60;100.00;98382.47;12215979;19;20010;-83
2023/08/01 10:33:00;;;;;;;2.30;1.20;;;;;;;22.14;100.00;98376.28;12190466;19;20028;-84
2023/08/01 10:37:02;;;;;;;2.65;1.27;;;;;;;22.68;98.26;98380.44;12207331;19;20552;-83
2023/08/01 10:41:04;;;;;;;2.28;1.13;;;;;;;22.38;89.44;98382.94;12210246;19;20011;-82
2023/08/01 10:45:07;;;;;;;3.53;1.20;;;;;;;21.68;86.56;98392.69;12190081;19;20002;-82
2023/08/01 10:49:08;;;;;;;;;;;;;;;21.76;85.12;98400.13;12211326;19;20429;-80
2023/08/01 10:53:10;;;;;;;4.00;1.20;;;;;;;22.20;87.96;98394.50;12210698;19;19968;-80
2023/08/01 10:57:20;;;;;;;4.28;1.20;;;;;;;22.56;88.35;98392.59;12190545;19;20095;-84
2023/08/01 11:01:22;;;;;;;3.67;1.10;;;;;;;22.67;78.57;98404.91;12212465;19;20006;-83
2023/08/01 11:05:25;;;;;;;2.67;1.30;;;;;;;22.93;65.76;98398.69;12187570;19;20058;-82
2023/08/01 11:09:28;;;;;;;5.60;1.48;;;;;;;23.49;72.30;98397.50;12213757;19;20236;-84
2023/08/01 11:13:29;;;;;;;3.22;1.17;;;;;;;23.28;70.49;98402.66;12204502;19;20010;-84
2023/08/01 11:17:32;;;;;;;2.30;1.10;;;;;;;22.88;71.64;98407.41;12191349;19;20015;-87
2023/08/01 11:21:36;;;;;;;2.17;1.42;;;;;;;23.23;73.03;98397.34;12209332;19;20018;-82
2023/08/01 11:25:45;;;;;;;2.70;1.27;;;;;;;24.33;70.93;98393.06;12210144;19;20014;-83
2023/08/01 11:29:47;;;;;;;2.42;1.10;;;;;;;23.88;69.31;98408.72;12186602;19;20023;-85
2023/08/01 11:33:56;;;;;;;;;;;;;;;23.23;69.95;98402.94;12205975;19;20014;-81
2023/08/01 11:37:58;;;;;;;3.72;1.38;;;;;;;22.99;68.18;98421.69;12204047;19;20309;-85
2023/08/01 11:42:00;;;;;;;2.13;1.50;;;;;;;23.56;66.64;98410.91;12183881;19;20052;-82
2023/08/01 11:46:02;;;;;;;3.30;1.25;;;;;;;24.10;64.37;98412.78;12203841;19;20026;-83
2023/08/01 11:50:05;;;;;;;2.93;1.20;;;;;;;24.73;58.47;98419.91;12218106;19;20085;-83
2023/08/01 11:54:09;;;;;;;4.63;1.95;;;;;;;25.54;57.55;98415.84;12192294;19;20255;-82
2023/08/01 11:58:11;;;;;;;2.72;1.40;;;;;;;26.03;56.74;98426.94;12217693;19;20007;-84
2023/08/01 12:02:24;;;;;;;3.65;2.13;;;;;;;26.44;57.53;98409.97;12224376;19;20022;-83
2023/08/01 12:06:26;;;;;;;3.85;1.30;;;;;;;26.23;55.63;98423.88;12192319;19;20050;-84
2023/08/01 12:10:40;;;;;;;2.63;1.38;;;;;;;25.76;52.45;98429.03;12216584;19;20006;-85
2023/08/01 12:14:42;;;;;;;3.90;1.10;;;;;;;25.22;54.79;98433.97;12193682;19;20032;-83
2023/08/01 12:18:44;;;;;;;1.92;1.02;;;;;;;24.65;54.50;98427.41;12218338;19;20585;-82
2023/08/01 12:23:00;;;;;;;3.30;1.15;;;;;;;24.76;54.60;98439.69;12216379;19;20570;-84
2023/08/01 12:27:02;;;;;;;3.00;0.98;;;;;;;24.71;52.65;98437.16;12196821;19;20711;-84
2023/08/01 12:31:04;;;;;;;;;;;;;;;25.05;47.15;98422.41;12215857;19;20014;-83
2023/08/01 12:35:06;;;;;;;3.00;1.10;;;;;;;25.08;52.04;98418.84;12214081;19;20281;-83
2023/08/01 12:39:11;;;;;;;2.42;1.02;;;;;;;26.05;43.92;98454.75;12189988;19;20497;-84
2023/08/01 12:43:14;;;;;;;3.40;1.30;;;;;;;26.59;42.37;98431.53;12208547;19;20424;-83
2023/08/01 12:47:16;;;;;;;3.33;1.05;;;;;;;27.53;41.16;98438.63;12192803;19;20011;-81
2023/08/01 12:51:18;;;;;;;5.32;1.50;;;;;;;28.26;39.12;98446.19;12210699;19;20574;-81
2023/08/01 12:55:19;;;;;;;2.58;1.20;;;;;;;29.00;40.22;98438.94;12210291;19;20010;-85
2023/08/01 12:59:21;;;;;;;2.88;1.42;;;;;;;29.58;39.76;98446.16;12191465;19;20011;-86
2023/08/01 13:03:23;;;;;;;3.60;1.50;;;;;;;29.86;36.78;98436.72;12203875;19;20046;-83
2023/08/01 13:07:27;;;;;;;;;;;;;;;30.03;37.26;98431.38;12212529;19;20098;-85
2023/08/01 13:11:28;;;;;;;2.78;1.15;;;;;;;29.55;37.53;98429.94;12189591;19;19939;-83
2023/08/01 13:15:30;;;;;;;2.47;1.13;;;;;;;30.05;38.10;98424.06;12211081;19;20439;-84
2023/08/01 13:19:32;;;;;;;;;;;;;;;31.07;36.93;98437.13;12218794;19;20026;-86
2023/08/01 13:23:33;;;;;;;2.95;1.25;;;;;;;31.92;35.17;98440.31;12188545;19;19911;-82
2023/08/01 13:27:35;;;;;;;3.50;1.48;;;;;;;31.69;33.88;98443.81;12215116;19;20007;-86
2023/08/01 13:31:37;;;;;;;2.83;1.55;;;;;;;32.01;32.92;98449.13;12210939;19;20038;-83
2023/08/01 13:35:39;;;;;;;3.67;1.65;;;;;;;31.99;32.81;98448.75;12189884;19;20010;-85
2023/08/01 13:39:41;;;;;;;3.20;1.25;;;;;;;32.06;33.56;98465.72;12209508;19;20010;-87
2023/08/01 13:43:42;;;;;;;5.68;1.50;;;;;;;30.89;34.91;98454.38;12211125;19;20073;-87
2023/08/01 13:47:44;;;;;;;3.17;1.65;;;;;;;30.82;36.18;98449.56;12204731;19;20052;-85
2023/08/01 13:51:46;;;;;;;3.08;1.42;;;;;;;32.02;35.64;98461.34;12214491;19;20006;-85
2023/08/01 13:55:48;;;;;;;1.65;1.20;;;;;;;32.98;34.66;98445.63;12217095;19;20011;-83
2023/08/01 13:59:50;;;;;;;3.30;1.58;;;;;;;34.07;33.71;98442.34;12195883;19;20028;-82
2023/08/01 14:04:13;;;;;;;;;;;;;;;34.44;32.38;98447.59;12217843;19;20006;-87
2023/08/01 14:08:15;;;;;;;3.35;1.33;;;;;;;33.89;32.36;98454.13;12210712;19;19966;-85
2023/08/01 14:12:19;;;;;;;4.18;1.60;;;;;;;31.33;34.86;98453.53;12208122;19;20037;-87
2023/08/01 14:16:21;;;;;;;3.00;1.30;;;;;;;28.81;39.18;98466.50;12211628;19;20027;-86
2023/08/01 14:20:23;;;;;;;;;;;;;;;26.46;44.12;98486.66;12195536;19;20014;-85
2023/08/01 14:24:25;;;;;;;4.47;1.38;;;;;;;24.68;49.44;98487.81;12214766;19;19907;-83
2023/08/01 14:28:27;;;;;;;;;;;;;;;23.77;56.94;98494.94;12220334;19;20006;-85
2023/08/01 14:32:28;;;;;;;13.43;2.55;;;;;;;22.36;70.83;98525.59;12199165;19;19914;-81
2023/08/01 14:36:30;;;;;;;5.55;2.40;;;;;;;20.34;100.00;98542.84;12209168;19;20015;-82
2023/08/01 14:40:34;;;;;;;7.63;2.90;;;;;;;18.76;100.00;98549.09;12206530;19;20470;-83
2023/08/01 14:44:35;;;;;;;9.57;3.42;;;;;;;18.03;100.00;98557.47;12183350;19;20011;-81
2023/08/01 14:48:37;;;;;;;7.68;2.70;;;;;;;17.50;100.00;98581.69;12208116;19;20011;-81
2023/08/01 14:52:40;;;;;;;7.25;3.03;;;;;;;17.11;100.00;98583.41;12207364;19;20018;-81
2023/08/01 14:56:42;;;;;;;9.20;2.55;;;;;;;17.09;100.00;98566.19;12187879;19;20117;-82
2023/08/01 15:00:44;;;;;;;7.97;3.28;;;;;;;17.15;100.00;98566.88;12208811;19;20131;-81
2023/08/01 15:04:51;;;;;;;13.93;3.95;;;;;;;17.41;100.00;98564.13;12208196;19;20494;-81
2023/08/01 15:08:53;;;;;;;11.50;4.38;;;;;;;17.58;100.00;98566.94;12185593;19;20035;-82
2023/08/01 15:12:55;;;;;;;10.05;3.55;;;;;;;17.73;100.00;98565.66;12206979;19;20015;-83
2023/08/01 15:16:57;;;;;;;7.40;3.63;;;;;;;17.89;100.00;98554.84;12212931;19;20011;-83
2023/08/01 15:20:58;;;;;;;8.40;3.17;;;;;;;18.06;100.00;98562.38;12192875;19;20015;-84
2023/08/01 15:25:00;;;;;;;10.82;3.75;;;;;;;18.14;100.00;98556.75;12227402;19;20094;-84
2023/08/01 15:29:03;;;;;;;9.70;2.80;;;;;;;18.42;100.00;98567.56;12230284;19;20100;-85
2023/08/01 15:33:06;;;;;;;;;;;;;;;18.49;100.00;98564.25;12203398;19;20015;-84
2023/08/01 15:37:09;;;;;;;8.18;3.05;;;;;;;18.38;100.00;98569.34;12230131;19;19938;-85
2023/08/01 15:41:11;;;;;;;9.32;3.30;;;;;;;18.18;100.00;98596.78;12226748;19;20014;-84
2023/08/01 15:45:13;;;;;;;11.30;2.75;;;;;;;17.72;100.00;98648.38;12193418;19;20011;-82
2023/08/01 15:49:15;;;;;;;5.78;2.42;;;;;;;17.22;100.00;98636.78;12211846;19;20014;-81
2023/08/01 15:53:17;;;;;;;5.45;1.77;;;;;;;16.78;100.00;98633.84;12193715;19;20396;-83
2023/08/01 15:57:19;;;;;;;6.28;1.95;;;;;;;16.64;100.00;98630.28;12226315;19;20036;-81
2023/08/01 16:01:21;;;;;;;4.95;1.90;;;;;;;16.71;100.00;98613.97;12212473;19;20011;-82
2023/08/01 16:05:23;;;;;;;5.00;2.20;;;;;;;16.76;100.00;98618.59;12193360;19;20011;-83
2023/08/01 16:09:25;;;;;;;5.93;2.30;;;;;;;16.80;100.00;98608.47;12210523;19;20006;-84
2023/08/01 16:13:26;;;;;;;7.15;2.70;;;;;;;16.90;100.00;98607.38;12220508;19;20056;-84
2023/08/01 16:17:28;;;;;;;11.07;2.60;;;;;;;17.21;100.00;98598.97;12193096;19;20019;-83
2023/08/01 16:21:30;;;;;;;4.00;2.17;;;;;;;17.68;100.00;98602.00;12210743;19;20011;-84
2023/08/01 16:25:32;;;;;;;5.10;2.53;;;;;;;17.89;100.00;98602.22;12229133;19;20028;-83
2023/08/01 16:29:34;;;;;;;6.80;2.70;;;;;;;18.00;100.00;98603.53;12186573;19;20050;-85
2023/08/01 16:33:36;;;;;;;9.55;2.45;;;;;;;18.06;100.00;98607.78;12212203;19;20074;-84
2023/08/01 16:37:39;;;;;;;6.00;2.40;;;;;;;17.99;100.00;98615.81;12216025;19;20014;-85
2023/08/01 16:41:40;;;;;;;7.63;2.83;;;;;;;17.98;100.00;98614.19;12191097;19;20378;-85
2023/08/01 16:45:42;;;;;;;6.25;2.75;;;;;;;17.92;100.00;98615.50;12213544;19;20007;-85
2023/08/01 16:49:53;;;;;;;8.03;2.40;;;;;;;18.03;100.00;98614.03;12205035;19;20023;-85
2023/08/01 16:53:55;;;;;;;6.75;2.20;;;;;;;18.06;100.00;98624.53;12195623;19;20426;-87
2023/08/01 16:57:56;;;;;;;6.28;1.73;;;;;;;17.89;100.00;98630.09;12216188;19;20018;-86
2023/08/01 17:01:59;;;;;;;8.63;2.00;;;;;;;17.78;100.00;98632.34;12210653;19;20339;-85
2023/08/01 17:06:01;;;;;;;5.20;2.10;;;;;;;17.67;100.00;98637.41;12187305;19;20228;-84
2023/08/01 17:10:04;;;;;;;8.13;2.00;;;;;;;17.57;100.00;98648.84;12209230;19;20070;-83
2023/08/01 17:14:06;;;;;;;7.20;2.05;;;;;;;17.48;100.00;98648.81;12224385;19;20006;-86
2023/08/01 17:18:08;;;;;;;4.97;1.67;;;;;;;17.38;100.00;98653.91;12183222;19;20010;-82
2023/08/01 17:22:10;;;;;;;5.18;1.80;;;;;;;17.30;100.00;98659.09;12205898;19;20014;-81
2023/08/01 17:26:12;;;;;;;7.10;1.50;;;;;;;17.16;100.00;98652.00;12212113;19;20021;-81
2023/08/01 17:30:14;;;;;;;3.50;1.57;;;;;;;17.08;100.00;98659.19;12191242;19;20022;-81
2023/08/01 17:34:16;;;;;;;4.40;1.60;;;;;;;17.04;100.00;98666.50;12207921;19;20259;-80
2023/08/01 17:38:18;;;;;;;5.50;1.60;;;;;;;16.98;100.00;98668.63;12188444;19;20011;-80
2023/08/01 17:42:20;;;;;;;5.35;1.70;;;;;;;16.82;100.00;98665.44;12208164;19;20014;-79
2023/08/01 17:46:22;;;;;;;6.88;1.67;;;;;;;16.72;100.00;98679.59;12200967;19;20015;-80
2023/08/01 17:50:24;;;;;;;3.75;1.30;;;;;;;16.67;100.00;98684.47;12188496;19;20006;-81
2023/08/01 17:54:26;;;;;;;4.35;1.30;;;;;;;16.58;100.00;98671.31;12205277;19;20090;-80
2023/08/01 17:58:27;;;;;;;3.28;1.38;;;;;;;16.50;100.00;98666.50;12210494;19;20058;-80
2023/08/01 18:02:29;;;;;;;2.63;1.30;;;;;;;16.48;100.00;98673.53;12183083;19;20011;-81
2023/08/01 18:06:31;;;;;;;5.38;1.40;;;;;;;16.51;100.00;98675.66;12206317;19;20037;-81
2023/08/01 18:10:37;;;;;;;4.35;1.75;;;;;;;16.58;100.00;98687.19;12202207;19;20011;-81
2023/08/01 18:14:38;;;;;;;3.53;1.70;;;;;;;16.65;100.00;98695.91;12187066;19;20086;-81
2023/08/01 18:18:40;;;;;;;7.85;2.00;;;;;;;16.73;100.00;98689.56;12206602;19;20017;-81
2023/08/01 18:22:42;;;;;;;3.03;1.40;;;;;;;16.87;100.00;98699.84;12203234;19;20362;-82
2023/08/01 18:26:44;;;;;;;7.10;1.57;;;;;;;17.08;100.00;98695.38;12179553;19;20011;-80
2023/08/01 18:30:46;;;;;;;3.53;1.83;;;;;;;17.39;100.00;98700.88;12206400;19;20017;-82
2023/08/01 18:34:48;;;;;;;3.97;1.50;;;;;;;17.41;100.00;98698.63;12207174;19;20038;-80
2023/08/01 18:38:51;;;;;;;5.00;1.65;;;;;;;17.31;100.00;98705.31;12181993;19;20081;-82
2023/08/01 18:42:53;;;;;;;5.45;1.73;;;;;;;17.21;100.00;98708.34;12200902;19;20014;-82
2023/08/01 18:46:55;;;;;;;3.47;1.50;;;;;;;17.07;100.00;98714.03;12202644;19;20018;-81
2023/08/01 18:50:57;;;;;;;5.30;1.98;;;;;;;16.92;100.00;98716.38;12185953;19;20923;-82
2023/08/01 18:55:02;;;;;;;5.18;1.88;;;;;;;16.73;100.00;98725.72;12208054;19;20030;-82